Time;durP1;ratioP1;P1;durP2;ratioP2;P2;SDS_P1;SDS_P2;PMS_P1;PMS_P2;Temp;Humidity;BMP_temperature;BMP_pressure;BME280_temperature;BME280_humidity;BME280_pressure;Samples;Min_cycle;Max_cycle;Signal;HPM_P1;HPM_P2
2022/12/10 00:00:35;;;;;;;46.78;21.08;;;-0.80;99.90;;;;;;5063575;28;20059;-68
2022/12/10 00:03:01;;;;;;;48.28;21.10;;;-0.90;99.90;;;;;;5058645;28;20036;-68
2022/12/10 00:05:27;;;;;;;45.17;21.13;;;-0.80;99.90;;;;;;5069277;28;20024;-68
2022/12/10 00:07:52;;;;;;;42.25;20.50;;;-0.90;99.90;;;;;;5062240;28;20115;-68
2022/12/10 00:10:18;;;;;;;47.70;22.90;;;-0.80;99.90;;;;;;5065904;28;20064;-68
2022/12/10 00:12:43;;;;;;;48.00;21.55;;;-0.90;99.90;;;;;;5066237;28;20040;-68
2022/12/10 00:15:10;;;;;;;48.75;21.33;;;-0.90;99.90;;;;;;5071873;28;20116;-68
2022/12/10 00:17:36;;;;;;;53.63;22.65;;;-0.90;99.90;;;;;;5067747;28;20032;-68
2022/12/10 00:20:02;;;;;;;46.65;21.23;;;-1.00;99.90;;;;;;5070058;28;20032;-68
2022/12/10 00:22:27;;;;;;;43.83;21.10;;;-1.00;99.90;;;;;;5065269;28;20052;-68
2022/12/10 00:24:53;;;;;;;46.08;22.42;;;-1.00;99.90;;;;;;5070459;28;20057;-68
2022/12/10 00:27:18;;;;;;;47.28;21.10;;;-1.00;99.90;;;;;;5071839;28;20090;-68
2022/12/10 00:29:44;;;;;;;50.58;22.00;;;-1.00;99.90;;;;;;5061441;28;20119;-68
2022/12/10 00:32:10;;;;;;;43.88;20.50;;;-1.00;99.90;;;;;;5065444;28;20413;-68
2022/12/10 00:34:35;;;;;;;43.47;19.90;;;-1.00;99.90;;;;;;5066157;28;20090;-69
2022/12/10 00:37:01;;;;;;;40.75;20.67;;;-1.10;99.90;;;;;;5066998;28;20064;-68
2022/12/10 00:39:27;;;;;;;46.03;20.25;;;-1.10;99.90;;;;;;5070006;28;20034;-68
2022/12/10 00:41:52;;;;;;;48.08;20.98;;;-1.10;99.90;;;;;;5069259;28;20547;-68
2022/12/10 00:44:18;;;;;;;47.75;21.60;;;-1.10;99.90;;;;;;5063977;28;20037;-68
2022/12/10 00:46:44;;;;;;;45.15;20.38;;;-1.00;99.90;;;;;;5086502;22;20104;-72
2022/12/10 00:49:10;;;;;;;45.55;20.58;;;-1.00;99.90;;;;;;5089608;28;20036;-73
2022/12/10 00:51:36;;;;;;;45.88;21.90;;;-1.00;99.90;;;;;;5090118;28;20035;-73
2022/12/10 00:54:02;;;;;;;48.53;21.90;;;-1.00;99.90;;;;;;5082688;28;20033;-73
2022/12/10 00:56:32;;;;;;;45.15;21.00;;;-0.90;99.90;;;;;;5091348;28;20622;-73
2022/12/10 00:58:58;;;;;;;48.83;21.63;;;-1.00;99.90;;;;;;5089446;28;20122;-73
2022/12/10 01:01:39;;;;;;;52.85;23.17;;;-0.90;99.90;;;;;;5083845;28;20036;-73
2022/12/10 01:04:08;;;;;;;44.67;21.38;;;-0.90;99.90;;;;;;5083273;28;20067;-73
2022/12/10 01:06:39;;;;;;;46.42;21.13;;;-0.90;99.90;;;;;;5090972;28;20058;-73
2022/12/10 01:09:07;;;;;;;46.47;21.52;;;-0.90;99.90;;;;;;5090625;28;20040;-73
2022/12/10 01:11:37;;;;;;;46.70;21.45;;;-0.90;99.90;;;;;;5083673;28;20055;-73
2022/12/10 01:14:04;;;;;;;44.90;21.02;;;-0.80;99.90;;;;;;5084796;28;20032;-73
2022/12/10 01:16:29;;;;;;;49.50;22.65;;;-0.80;99.90;;;;;;5084921;28;20047;-72
2022/12/10 01:18:57;;;;;;;49.10;22.48;;;-0.80;99.90;;;;;;5080741;28;20044;-73
2022/12/10 01:21:24;;;;;;;47.15;22.92;;;-0.80;99.90;;;;;;5089674;28;20074;-73
2022/12/10 01:23:51;;;;;;;51.47;24.27;;;-0.80;99.90;;;;;;5091043;28;20032;-73
2022/12/10 01:26:20;;;;;;;51.80;22.80;;;-0.70;99.90;;;;;;5086636;28;20028;-73
2022/12/10 01:28:47;;;;;;;43.50;21.45;;;-0.70;99.90;;;;;;5091184;28;20036;-73
2022/12/10 01:31:18;;;;;;;51.00;23.70;;;-0.70;99.90;;;;;;5091613;28;20028;-73
2022/12/10 01:33:44;;;;;;;60.25;25.20;;;-0.70;99.90;;;;;;5091364;28;20405;-73
2022/12/10 01:36:16;;;;;;;50.72;23.40;;;-0.70;99.90;;;;;;5094075;28;20047;-73
2022/12/10 01:38:42;;;;;;;59.83;23.45;;;-0.60;99.90;;;;;;5074337;28;20051;-73
2022/12/10 01:41:13;;;;;;;54.50;23.67;;;-0.60;99.90;;;;;;5087687;28;20040;-73
2022/12/10 01:44:07;;;;;;;53.58;23.23;;;-0.60;99.90;;;;;;5093482;28;20136;-73
2022/12/10 01:46:42;;;;;;;58.20;24.90;;;-0.50;99.90;;;;;;5017787;28;20038;-73
2022/12/10 01:49:10;;;;;;;61.03;25.48;;;-0.50;99.90;;;;;;5074634;28;20076;-73
2022/12/10 01:51:38;;;;;;;59.15;24.88;;;-0.50;99.90;;;;;;5092851;28;20042;-73
2022/12/10 01:54:07;;;;;;;57.95;24.55;;;-0.50;99.90;;;;;;5088949;28;20044;-73
2022/12/10 01:56:37;;;;;;;60.08;26.05;;;-0.50;99.90;;;;;;5088497;28;20036;-73
2022/12/10 01:59:04;;;;;;;65.67;25.57;;;-0.50;99.90;;;;;;5084358;28;20043;-73
2022/12/10 02:01:48;;;;;;;58.05;25.75;;;-0.50;99.90;;;;;;5089098;28;20481;-72
2022/12/10 02:04:13;;;;;;;61.13;26.20;;;-0.50;99.90;;;;;;5088693;28;20055;-73
2022/12/10 02:06:45;;;;;;;68.97;28.00;;;-0.50;99.90;;;;;;5090117;28;20040;-72
2022/12/10 02:09:25;;;;;;;;;;;-0.50;99.90;;;;;;5092791;28;20040;-73
2022/12/10 02:12:17;;;;;;;64.07;27.23;;;-0.50;99.90;;;;;;5088975;28;19916;-72
2022/12/10 02:15:17;;;;;;;66.82;27.27;;;-0.50;99.90;;;;;;5091867;28;20039;-72
2022/12/10 02:17:48;;;;;;;62.72;26.67;;;-0.40;99.90;;;;;;5067882;28;20114;-72
2022/12/10 02:20:33;;;;;;;64.78;27.73;;;-0.50;99.90;;;;;;5079258;28;20047;-72
2022/12/10 02:23:08;;;;;;;66.70;28.08;;;-0.50;99.90;;;;;;5087242;28;20058;-72
2022/12/10 02:25:59;;;;;;;65.10;27.67;;;-0.50;99.90;;;;;;5082435;28;20039;-72
2022/12/10 02:29:06;;;;;;;62.78;27.48;;;-0.50;99.90;;;;;;5084965;28;20397;-72
2022/12/10 02:31:33;;;;;;;66.25;27.58;;;-0.50;99.90;;;;;;5077722;28;20109;-72
2022/12/10 02:34:01;;;;;;;58.88;26.33;;;-0.60;99.90;;;;;;5092771;28;20049;-73
2022/12/10 02:36:30;;;;;;;69.60;28.50;;;-0.60;99.90;;;;;;5088561;28;20039;-72
2022/12/10 02:38:59;;;;;;;66.45;27.23;;;-0.60;99.90;;;;;;5086575;28;20040;-73
2022/12/10 02:41:34;;;;;;;73.22;27.90;;;-0.60;99.90;;;;;;5083683;28;20036;-73
2022/12/10 02:44:04;;;;;;;59.10;26.58;;;-0.70;99.90;;;;;;5084444;28;20040;-73
2022/12/10 02:46:32;;;;;;;63.17;27.52;;;-0.70;99.90;;;;;;5092909;28;20443;-73
2022/12/10 02:48:59;;;;;;;63.58;27.90;;;-0.70;99.90;;;;;;5089928;28;20036;-73
2022/12/10 02:51:26;;;;;;;71.32;27.85;;;-0.70;99.90;;;;;;5092092;28;20032;-73
2022/12/10 02:54:03;;;;;;;61.90;27.33;;;-0.80;99.90;;;;;;5092942;28;20082;-73
2022/12/10 02:56:50;;;;;;;64.88;27.77;;;-0.80;99.90;;;;;;5080095;28;20494;-73
2022/12/10 02:59:20;;;;;;;57.50;25.73;;;-0.80;99.90;;;;;;5085551;28;20094;-73
2022/12/10 03:02:02;;;;;;;61.13;26.80;;;-0.90;99.90;;;;;;5090336;28;20043;-73
2022/12/10 03:04:39;;;;;;;;;;;-0.80;99.90;;;;;;5080533;28;20051;-73
2022/12/10 03:07:11;;;;;;;63.00;27.00;;;-0.90;99.90;;;;;;5084302;28;19916;-73
2022/12/10 03:09:48;;;;;;;69.22;28.73;;;-0.90;99.90;;;;;;5089148;28;20117;-73
2022/12/10 03:12:28;;;;;;;68.85;26.67;;;-1.00;99.90;;;;;;5088633;28;20142;-73
2022/12/10 03:14:59;;;;;;;62.05;26.85;;;-1.00;99.90;;;;;;5084829;28;20072;-73
2022/12/10 03:17:27;;;;;;;63.05;27.48;;;-1.00;99.90;;;;;;5088833;28;20032;-73
2022/12/10 03:19:55;;;;;;;65.93;28.30;;;-1.00;99.90;;;;;;5086873;28;20047;-73
2022/12/10 03:22:20;;;;;;;64.85;26.05;;;-1.10;99.90;;;;;;5092175;28;20070;-73
2022/12/10 03:24:47;;;;;;;64.43;27.13;;;-1.10;99.90;;;;;;5090362;28;20067;-73
2022/12/10 03:27:15;;;;;;;64.97;27.88;;;-1.10;99.90;;;;;;5086445;28;20036;-73
2022/12/10 03:29:48;;;;;;;68.03;27.60;;;-1.10;99.90;;;;;;5086162;28;20032;-73
2022/12/10 03:32:15;;;;;;;63.53;27.33;;;-1.10;99.90;;;;;;5075231;28;20085;-73
2022/12/10 03:34:42;;;;;;;63.58;27.35;;;-1.20;99.90;;;;;;5083296;28;20036;-73
2022/12/10 03:37:09;;;;;;;65.75;28.13;;;-1.10;99.90;;;;;;5082551;28;20052;-73
2022/12/10 03:39:36;;;;;;;67.30;28.23;;;-1.20;99.90;;;;;;5086286;28;20541;-73
2022/12/10 03:42:03;;;;;;;63.13;26.60;;;-1.20;99.90;;;;;;5090994;28;20036;-73
2022/12/10 03:44:34;;;;;;;67.20;27.70;;;-1.20;99.90;;;;;;5086444;28;20043;-73
2022/12/10 03:47:01;;;;;;;62.92;26.42;;;-1.30;99.90;;;;;;5082680;28;20149;-73
2022/12/10 03:49:27;;;;;;;62.63;27.38;;;-1.30;99.90;;;;;;5089437;28;20043;-73
2022/12/10 03:51:52;;;;;;;64.85;27.65;;;-1.30;99.90;;;;;;5090357;28;20035;-73
2022/12/10 03:54:19;;;;;;;61.40;27.15;;;-1.40;99.90;;;;;;5088505;28;20040;-73
2022/12/10 03:56:44;;;;;;;61.47;27.60;;;-1.30;99.90;;;;;;5087573;28;20041;-73
2022/12/10 03:59:10;;;;;;;61.28;26.95;;;-1.30;99.90;;;;;;5092220;28;20392;-73
2022/12/10 04:01:35;;;;;;;62.05;27.35;;;-1.40;99.90;;;;;;5092495;28;20043;-73
2022/12/10 04:04:03;;;;;;;62.00;26.75;;;-1.40;99.90;;;;;;5088485;28;20038;-73
2022/12/10 04:06:28;;;;;;;69.53;27.10;;;-1.40;99.90;;;;;;5088017;28;20118;-73
2022/12/10 04:08:54;;;;;;;66.75;27.88;;;-1.40;99.90;;;;;;5090944;28;20560;-73
2022/12/10 04:11:20;;;;;;;63.55;25.55;;;-1.40;99.90;;;;;;5092360;28;20113;-73
2022/12/10 04:16:31;;;;;;;61.92;26.63;;;-1.50;99.90;;;;;;5091418;28;20048;-73
2022/12/10 04:18:59;;;;;;;63.47;28.30;;;-1.50;99.90;;;;;;5089437;28;20425;-73
2022/12/10 04:26:58;;;;;;;63.97;27.63;;;-1.50;99.90;;;;;;5090696;28;20040;-74
2022/12/10 04:29:27;;;;;;;63.10;27.05;;;-1.60;99.90;;;;;;5091534;28;20071;-74
2022/12/10 04:31:53;;;;;;;67.13;27.60;;;-1.60;99.90;;;;;;5078244;28;20098;-74
2022/12/10 04:34:19;;;;;;;64.85;27.35;;;-1.60;99.90;;;;;;5081136;28;20032;-73
2022/12/10 04:36:46;;;;;;;67.93;28.25;;;-1.60;99.90;;;;;;5080988;28;20032;-73
2022/12/10 04:39:11;;;;;;;62.10;27.15;;;-1.60;99.90;;;;;;5088994;28;20036;-73
2022/12/10 04:41:39;;;;;;;62.90;26.80;;;-1.60;99.90;;;;;;5071349;28;20135;-73
2022/12/10 04:44:05;;;;;;;62.67;26.95;;;-1.60;99.90;;;;;;5081825;28;20032;-74
2022/12/10 04:46:30;;;;;;;66.60;27.58;;;-1.60;99.90;;;;;;5086769;28;20097;-73
2022/12/10 04:48:56;;;;;;;56.10;25.35;;;-1.70;99.90;;;;;;5091902;28;20404;-74
2022/12/10 04:51:22;;;;;;;61.97;26.98;;;-1.60;99.90;;;;;;5083648;28;20159;-74
2022/12/10 04:53:47;;;;;;;60.92;26.75;;;-1.60;99.90;;;;;;5089574;28;20028;-74
2022/12/10 04:56:13;;;;;;;66.93;28.88;;;-1.60;99.90;;;;;;5091255;28;20495;-74
2022/12/10 04:58:38;;;;;;;67.30;29.45;;;-1.60;99.90;;;;;;5091197;28;20032;-74
2022/12/10 05:01:06;;;;;;;62.00;26.05;;;-1.60;99.90;;;;;;5090041;28;20071;-74
2022/12/10 05:03:32;;;;;;;62.38;26.85;;;-1.70;99.90;;;;;;5092943;28;20444;-74
2022/12/10 05:06:09;;;;;;;66.53;28.55;;;-1.70;99.90;;;;;;5084765;28;20541;-74
2022/12/10 05:08:36;;;;;;;63.00;27.40;;;-1.70;99.90;;;;;;5092882;28;20119;-80
2022/12/10 05:11:04;;;;;;;63.30;26.20;;;-1.70;99.90;;;;;;5094072;28;20514;-80
2022/12/10 05:13:30;;;;;;;57.30;25.98;;;-1.70;99.90;;;;;;5090236;28;20032;-79
2022/12/10 05:15:56;;;;;;;62.22;27.55;;;-1.80;99.90;;;;;;5086765;28;20032;-80
2022/12/10 05:18:21;;;;;;;59.40;26.95;;;-1.80;99.90;;;;;;5090002;28;20028;-77
2022/12/10 05:20:48;;;;;;;61.53;27.85;;;-1.90;99.90;;;;;;5094881;28;20023;-77
2022/12/10 05:23:28;;;;;;;66.20;27.27;;;-1.90;99.90;;;;;;5094310;28;20366;-78
2022/12/10 05:26:03;;;;;;;65.10;28.75;;;-1.90;99.90;;;;;;5083447;28;20072;-79
2022/12/10 05:28:30;;;;;;;64.50;27.45;;;-1.90;99.90;;;;;;5094050;28;20481;-79
2022/12/10 05:30:56;;;;;;;60.58;26.40;;;-1.80;99.90;;;;;;5090013;28;20038;-79
2022/12/10 05:33:22;;;;;;;62.97;27.70;;;-1.80;99.90;;;;;;5086842;28;20028;-79
2022/12/10 05:35:59;;;;;;;64.72;28.17;;;-1.80;99.90;;;;;;5090915;28;20036;-79
2022/12/10 05:38:26;;;;;;;64.82;27.42;;;-1.80;99.90;;;;;;5091814;28;20088;-79
2022/12/10 05:40:52;;;;;;;70.10;28.38;;;-1.80;99.90;;;;;;5093019;28;20489;-79
2022/12/10 05:43:18;;;;;;;72.10;28.60;;;-1.80;99.90;;;;;;5082807;28;20078;-77
2022/12/10 05:45:44;;;;;;;67.32;29.42;;;-1.90;99.90;;;;;;5091815;28;20066;-79
2022/12/10 05:48:12;;;;;;;67.13;27.35;;;-1.90;99.90;;;;;;5094043;28;20446;-79
2022/12/10 05:50:38;;;;;;;62.22;25.85;;;-1.90;99.90;;;;;;5087467;28;20037;-79
2022/12/10 05:53:03;;;;;;;66.03;27.50;;;-1.90;99.90;;;;;;5089682;28;20511;-79
2022/12/10 05:55:31;;;;;;;69.20;27.90;;;-1.90;99.90;;;;;;5092857;28;20044;-79
2022/12/10 05:57:57;;;;;;;69.13;28.35;;;-1.90;99.90;;;;;;5093491;28;20402;-79
2022/12/10 06:00:23;;;;;;;64.38;27.20;;;-2.00;99.90;;;;;;5087265;28;20036;-79
2022/12/10 06:02:50;;;;;;;67.40;27.70;;;-2.00;99.90;;;;;;5091500;28;20040;-79
2022/12/10 06:05:16;;;;;;;71.50;28.73;;;-2.00;99.90;;;;;;5084407;28;20097;-79
2022/12/10 06:07:42;;;;;;;67.53;28.08;;;-2.00;99.90;;;;;;5094417;28;20048;-79
2022/12/10 06:10:07;;;;;;;66.60;27.20;;;-2.00;99.90;;;;;;5088345;28;20039;-79
2022/12/10 06:12:33;;;;;;;71.28;29.40;;;-2.00;99.90;;;;;;5090595;28;20041;-79
2022/12/10 06:14:59;;;;;;;70.57;28.60;;;-2.00;99.90;;;;;;5093314;28;20036;-79
2022/12/10 06:17:24;;;;;;;65.18;28.23;;;-2.10;99.90;;;;;;5091600;28;20035;-79
2022/12/10 06:19:50;;;;;;;68.88;28.35;;;-2.10;99.90;;;;;;5093737;28;20523;-79
2022/12/10 06:22:15;;;;;;;72.65;29.23;;;-2.10;99.90;;;;;;5084904;28;20032;-79
2022/12/10 06:24:41;;;;;;;70.88;29.20;;;-2.10;99.90;;;;;;5090720;28;20039;-79
2022/12/10 06:27:07;;;;;;;67.30;27.60;;;-2.00;99.90;;;;;;5093581;28;20036;-79
2022/12/10 06:29:33;;;;;;;69.90;27.77;;;-2.10;99.90;;;;;;5093475;28;20136;-79
2022/12/10 06:31:58;;;;;;;67.05;28.23;;;-2.10;99.90;;;;;;5090539;28;20032;-79
2022/12/10 06:34:24;;;;;;;66.10;28.15;;;-2.10;99.90;;;;;;5090160;28;20504;-79
2022/12/10 06:36:50;;;;;;;68.40;28.45;;;-2.10;99.90;;;;;;5094309;28;20032;-79
2022/12/10 06:39:15;;;;;;;72.30;29.00;;;-2.10;99.90;;;;;;5091507;28;20028;-79
2022/12/10 06:41:43;;;;;;;74.10;28.80;;;-2.10;99.90;;;;;;5089004;28;20153;-79
2022/12/10 06:44:10;;;;;;;66.00;26.65;;;-2.10;99.90;;;;;;5090505;28;20043;-80
2022/12/10 06:46:36;;;;;;;67.88;29.10;;;-2.10;99.90;;;;;;5076943;28;20040;-83
2022/12/10 06:49:02;;;;;;;68.00;29.35;;;-2.10;99.90;;;;;;5087080;22;20056;-70
2022/12/10 06:51:27;;;;;;;67.60;29.25;;;-2.10;99.90;;;;;;5057294;28;20040;-70
2022/12/10 06:53:53;;;;;;;71.97;29.30;;;-2.10;99.90;;;;;;5071578;28;20123;-70
2022/12/10 06:56:19;;;;;;;69.80;29.20;;;-2.10;99.90;;;;;;5073281;28;20032;-70
2022/12/10 06:58:46;;;;;;;69.05;27.50;;;-2.10;99.90;;;;;;5071986;28;20498;-70
2022/12/10 07:01:21;;;;;;;71.97;30.15;;;-2.10;99.90;;;;;;5072589;28;20074;-70
2022/12/10 07:03:51;;;;;;;76.70;29.90;;;-2.20;99.90;;;;;;5062827;28;20052;-70
2022/12/10 07:06:18;;;;;;;73.28;28.25;;;-2.10;99.90;;;;;;5071994;28;20045;-70
2022/12/10 07:08:44;;;;;;;72.70;31.45;;;-2.20;99.90;;;;;;5070953;28;20409;-70
2022/12/10 07:11:12;;;;;;;73.95;30.52;;;-2.20;99.90;;;;;;5072049;28;20037;-70
2022/12/10 07:13:38;;;;;;;68.90;28.73;;;-2.20;99.90;;;;;;5071413;28;20036;-70
2022/12/10 07:16:21;;;;;;;73.97;28.60;;;-2.10;99.90;;;;;;5055162;28;20200;-69
2022/12/10 07:18:48;;;;;;;72.85;29.83;;;-2.20;99.90;;;;;;5071580;28;20040;-70
2022/12/10 07:21:20;;;;;;;69.47;29.60;;;-2.20;99.90;;;;;;5063897;28;20070;-71
2022/12/10 07:23:46;;;;;;;72.10;29.00;;;-2.10;99.90;;;;;;5065578;28;20127;-71
2022/12/10 07:26:12;;;;;;;77.28;30.88;;;-2.20;99.90;;;;;;5060310;28;20119;-70
2022/12/10 07:28:37;;;;;;;75.20;30.63;;;-2.20;99.90;;;;;;5064944;28;20040;-70
2022/12/10 07:31:05;;;;;;;72.22;29.55;;;-2.20;99.90;;;;;;5072314;28;20082;-70
2022/12/10 07:33:30;;;;;;;73.13;30.00;;;-2.10;99.90;;;;;;5071419;28;20400;-70
2022/12/10 07:35:56;;;;;;;76.97;30.92;;;-2.10;99.90;;;;;;5067518;28;20397;-70
2022/12/10 07:38:23;;;;;;;78.07;28.90;;;-2.10;99.90;;;;;;5063414;28;20040;-70
2022/12/10 07:40:49;;;;;;;79.68;31.05;;;-2.10;99.90;;;;;;5070076;28;20517;-69
2022/12/10 07:43:14;;;;;;;77.80;31.02;;;-2.00;99.90;;;;;;5052829;28;20094;-69
2022/12/10 07:45:40;;;;;;;81.35;30.55;;;-2.00;99.90;;;;;;5070180;28;20456;-69
2022/12/10 07:48:06;;;;;;;75.40;30.83;;;-2.00;99.90;;;;;;5070042;28;20033;-69
2022/12/10 07:50:31;;;;;;;83.28;31.73;;;-1.90;99.90;;;;;;5066257;28;20040;-69
2022/12/10 07:52:57;;;;;;;78.72;30.70;;;-1.90;99.90;;;;;;5071759;28;20123;-69
2022/12/10 07:55:22;;;;;;;81.60;31.77;;;-1.90;99.90;;;;;;5070736;28;20496;-69
2022/12/10 07:57:48;;;;;;;76.18;29.88;;;-1.80;99.90;;;;;;5060634;28;20128;-69
2022/12/10 08:00:14;;;;;;;80.70;33.53;;;-1.90;99.90;;;;;;5069653;28;20041;-69
2022/12/10 08:02:39;;;;;;;73.38;30.65;;;-1.80;99.90;;;;;;5068748;28;20463;-69
2022/12/10 08:05:05;;;;;;;84.65;32.28;;;-1.80;99.90;;;;;;5069264;28;20059;-69
2022/12/10 08:07:31;;;;;;;79.68;29.52;;;-1.80;99.90;;;;;;5067010;28;20043;-69
2022/12/10 08:09:56;;;;;;;76.65;31.25;;;-1.80;99.90;;;;;;5071260;28;20131;-69
2022/12/10 08:12:22;;;;;;;73.00;28.88;;;-1.80;99.90;;;;;;5071282;28;20090;-69
2022/12/10 08:14:47;;;;;;;74.68;30.35;;;-1.80;99.90;;;;;;5070926;28;20035;-69
2022/12/10 08:17:13;;;;;;;89.22;31.05;;;-1.80;99.90;;;;;;5066482;28;20452;-69
2022/12/10 08:19:39;;;;;;;74.00;29.92;;;-1.70;99.90;;;;;;5070752;28;20044;-69
2022/12/10 08:22:04;;;;;;;71.57;29.88;;;-1.70;99.90;;;;;;5052425;28;20072;-69
2022/12/10 08:24:30;;;;;;;82.72;31.58;;;-1.70;99.90;;;;;;5053328;28;20036;-69
2022/12/10 08:26:55;;;;;;;80.53;31.40;;;-1.70;99.90;;;;;;5069332;28;20037;-69
2022/12/10 08:29:21;;;;;;;71.30;29.17;;;-1.60;99.90;;;;;;5071747;28;20557;-69
2022/12/10 08:31:47;;;;;;;77.55;31.42;;;-1.60;99.90;;;;;;5051168;28;20395;-69
2022/12/10 08:34:14;;;;;;;72.07;29.90;;;-1.60;99.90;;;;;;5070874;28;20042;-69
2022/12/10 08:36:40;;;;;;;76.85;33.35;;;-1.60;99.90;;;;;;5070687;28;20024;-68
2022/12/10 08:39:05;;;;;;;78.95;30.50;;;-1.50;99.90;;;;;;5070942;28;20085;-68
2022/12/10 08:41:31;;;;;;;77.53;30.40;;;-1.50;99.90;;;;;;5070417;28;20068;-68
2022/12/10 08:43:57;;;;;;;76.38;31.83;;;-1.40;99.90;;;;;;5071539;28;20036;-68
2022/12/10 08:46:23;;;;;;;75.57;31.17;;;-1.40;99.90;;;;;;5067174;28;20040;-68
2022/12/10 08:48:48;;;;;;;74.68;31.65;;;-1.40;99.90;;;;;;5071030;28;20090;-68
2022/12/10 08:51:17;;;;;;;81.50;31.42;;;-1.40;99.90;;;;;;5070407;28;20040;-68
2022/12/10 08:53:43;;;;;;;76.18;30.65;;;-1.40;99.90;;;;;;5070785;28;20032;-68
2022/12/10 08:56:08;;;;;;;79.78;32.85;;;-1.40;99.90;;;;;;5069212;28;20085;-68
2022/12/10 08:58:36;;;;;;;79.65;32.05;;;-1.40;99.90;;;;;;5070472;28;20036;-68
2022/12/10 09:01:07;;;;;;;77.72;31.10;;;-1.30;99.90;;;;;;5067820;28;20060;-68
2022/12/10 09:03:33;;;;;;;74.57;30.70;;;-1.30;99.90;;;;;;5070860;28;20032;-69
2022/12/10 09:06:02;;;;;;;77.55;31.92;;;-1.30;99.90;;;;;;5068097;28;20399;-68
2022/12/10 09:08:28;;;;;;;77.15;29.05;;;-1.30;99.90;;;;;;5071620;28;20040;-69
2022/12/10 09:10:54;;;;;;;81.22;32.30;;;-1.20;99.90;;;;;;5065580;28;20040;-69
2022/12/10 09:13:19;;;;;;;75.75;30.67;;;-1.20;99.90;;;;;;5069157;28;20113;-68
2022/12/10 09:15:52;;;;;;;84.13;33.42;;;-1.10;99.90;;;;;;5067477;28;20040;-68
2022/12/10 09:18:17;;;;;;;79.50;31.38;;;-1.00;99.90;;;;;;5029077;28;20120;-68
2022/12/10 09:20:43;;;;;;;83.45;32.95;;;-0.90;99.90;;;;;;5065876;28;20048;-68
2022/12/10 09:23:09;;;;;;;83.50;34.10;;;-0.80;99.90;;;;;;5070320;28;20098;-68
2022/12/10 09:25:34;;;;;;;86.70;31.88;;;-0.70;99.90;;;;;;5070595;28;20044;-68
2022/12/10 09:28:00;;;;;;;83.60;32.58;;;-0.60;99.90;;;;;;5067125;28;20040;-68
2022/12/10 09:30:25;;;;;;;80.32;32.58;;;-0.60;99.90;;;;;;5070039;28;20115;-68
2022/12/10 09:32:51;;;;;;;82.15;32.83;;;-0.50;99.90;;;;;;5069547;28;20105;-68
2022/12/10 09:35:17;;;;;;;83.65;32.80;;;-0.50;99.90;;;;;;5069076;28;20064;-68
2022/12/10 09:37:42;;;;;;;83.85;32.88;;;-0.40;99.90;;;;;;5066553;28;20412;-68
2022/12/10 09:40:24;;;;;;;78.30;31.95;;;-0.40;99.90;;;;;;5069661;28;20047;-68
2022/12/10 09:43:00;;;;;;;87.55;32.65;;;-0.30;99.90;;;;;;5061821;28;20123;-68
2022/12/10 09:45:35;;;;;;;80.30;32.13;;;-0.30;99.90;;;;;;5068831;28;20093;-68
2022/12/10 09:48:15;;;;;;;85.43;32.85;;;-0.30;99.90;;;;;;5070309;28;20044;-69
2022/12/10 09:51:08;;;;;;;80.72;31.48;;;-0.30;99.90;;;;;;5069541;28;20045;-66
2022/12/10 09:53:36;;;;;;;79.40;31.75;;;-0.30;99.90;;;;;;5068630;28;20044;-66
2022/12/10 09:56:03;;;;;;;76.70;31.95;;;-0.30;99.90;;;;;;5072823;28;20138;-66
2022/12/10 09:58:29;;;;;;;84.30;32.38;;;-0.20;99.90;;;;;;5072394;28;20107;-66
2022/12/10 10:01:01;;;;;;;78.25;30.52;;;-0.20;99.90;;;;;;5070507;28;20140;-66
2022/12/10 10:03:31;;;;;;;83.70;31.63;;;-0.20;99.90;;;;;;5072455;28;20047;-67
2022/12/10 10:05:57;;;;;;;79.32;32.00;;;-0.20;99.90;;;;;;5074043;28;20486;-67
2022/12/10 10:08:37;;;;;;;78.65;31.77;;;-0.20;99.90;;;;;;5055642;28;20043;-67
2022/12/10 10:11:04;;;;;;;81.15;32.42;;;-0.30;99.90;;;;;;5070434;28;20033;-68
2022/12/10 10:13:40;;;;;;;83.38;33.42;;;-0.30;99.90;;;;;;5076553;28;20028;-67
2022/12/10 10:16:18;;;;;;;81.15;31.38;;;-0.30;99.90;;;;;;5054900;28;20047;-67
2022/12/10 10:18:54;;;;;;;77.57;30.48;;;-0.30;99.90;;;;;;5059490;28;20121;-67
2022/12/10 10:21:38;;;;;;;79.85;32.13;;;-0.30;99.90;;;;;;5072789;28;20041;-67
2022/12/10 10:24:06;;;;;;;75.05;30.90;;;-0.30;99.90;;;;;;5054027;28;20051;-68
2022/12/10 10:26:32;;;;;;;82.75;31.98;;;-0.30;99.90;;;;;;5048597;28;20143;-66
2022/12/10 10:29:07;;;;;;;91.78;35.92;;;-0.30;99.90;;;;;;5051851;28;20086;-68
2022/12/10 10:31:35;;;;;;;81.38;33.50;;;-0.30;99.90;;;;;;5072288;28;20533;-68
2022/12/10 10:34:04;;;;;;;86.13;34.63;;;-0.30;99.90;;;;;;5053468;28;20474;-68
2022/12/10 10:36:38;;;;;;;88.47;35.22;;;-0.20;99.90;;;;;;5062623;28;20045;-68
2022/12/10 10:39:20;;;;;;;84.60;34.10;;;-0.20;99.90;;;;;;5069187;28;20032;-67
2022/12/10 10:41:52;;;;;;;88.30;35.92;;;-0.20;99.90;;;;;;5070741;28;20043;-68
2022/12/10 10:44:20;;;;;;;88.05;35.95;;;-0.20;99.90;;;;;;5073365;28;20047;-68
2022/12/10 10:46:48;;;;;;;89.07;35.33;;;-0.20;99.90;;;;;;5071938;28;20093;-68
2022/12/10 10:49:14;;;;;;;79.50;32.70;;;-0.20;99.90;;;;;;5037197;28;20044;-68
2022/12/10 10:51:44;;;;;;;84.50;33.20;;;-0.30;99.90;;;;;;5073429;28;20037;-68
2022/12/10 10:54:11;;;;;;;86.13;32.88;;;-0.30;99.90;;;;;;5072216;28;20040;-68
2022/12/10 10:56:43;;;;;;;84.65;31.83;;;-0.30;99.90;;;;;;5072638;28;20033;-68
2022/12/10 10:59:16;;;;;;;80.28;30.85;;;-0.30;99.90;;;;;;5072218;28;20036;-68
2022/12/10 11:02:00;;;;;;;83.47;30.45;;;-0.30;99.90;;;;;;5060651;28;20119;-68
2022/12/10 11:04:35;;;;;;;82.88;31.42;;;-0.30;99.90;;;;;;5069380;28;20045;-68
2022/12/10 11:07:03;;;;;;;77.90;30.35;;;-0.30;99.90;;;;;;5065432;28;20421;-68
2022/12/10 11:09:32;;;;;;;68.38;29.02;;;-0.30;99.90;;;;;;5070824;28;20117;-68
2022/12/10 11:12:00;;;;;;;75.85;29.60;;;-0.30;99.90;;;;;;5071815;28;20552;-68
2022/12/10 11:14:33;;;;;;;78.28;28.75;;;-0.40;99.90;;;;;;5070325;28;20037;-68
2022/12/10 11:17:10;;;;;;;74.68;28.00;;;-0.50;99.90;;;;;;5069749;28;20546;-68
2022/12/10 11:19:43;;;;;;;76.45;30.02;;;-0.50;99.90;;;;;;5066580;28;20109;-68
2022/12/10 11:22:27;;;;;;;76.47;28.52;;;-0.60;99.90;;;;;;5066179;28;20048;-68
2022/12/10 11:24:52;;;;;;;80.07;28.67;;;-0.60;99.90;;;;;;5066738;28;20568;-68
2022/12/10 11:27:37;;;;;;;79.20;30.23;;;-0.60;99.90;;;;;;5066888;28;20119;-68
2022/12/10 11:30:26;;;;;;;82.90;29.13;;;-0.60;99.90;;;;;;5068682;28;20048;-68
2022/12/10 11:33:10;;;;;;;98.45;33.80;;;-0.60;99.90;;;;;;5071430;28;20155;-67
2022/12/10 11:36:22;;;;;;;86.68;30.92;;;-0.60;99.90;;;;;;5068493;28;20040;-68
2022/12/10 11:39:02;;;;;;;98.07;32.97;;;-0.60;99.90;;;;;;5033428;28;20086;-68
2022/12/10 11:41:51;;;;;;;77.25;29.13;;;-0.60;99.90;;;;;;5067245;28;20075;-68
2022/12/10 11:44:48;;;;;;;92.47;30.52;;;-0.50;99.90;;;;;;5063845;28;20132;-67
2022/12/10 11:47:35;;;;;;;88.30;30.52;;;-0.50;99.90;;;;;;5064596;28;20051;-69
2022/12/10 11:50:30;;;;;;;89.95;32.65;;;-0.50;99.90;;;;;;5064407;28;20062;-67
2022/12/10 11:53:15;;;;;;;92.82;32.80;;;-0.50;99.90;;;;;;5071590;28;20447;-69
2022/12/10 11:56:13;;;;;;;87.78;30.42;;;-0.50;99.90;;;;;;5067504;28;20060;-67
2022/12/10 11:59:16;;;;;;;94.82;31.15;;;-0.40;99.90;;;;;;5066157;28;20526;-67
2022/12/10 12:02:12;;;;;;;93.75;32.67;;;-0.40;99.90;;;;;;5070870;28;20162;-67
2022/12/10 12:05:20;;;;;;;99.15;33.13;;;-0.40;99.90;;;;;;5069686;28;20387;-68
2022/12/10 12:07:52;;;;;;;99.47;31.25;;;-0.40;99.90;;;;;;5021248;28;20494;-67
2022/12/10 12:10:55;;;;;;;92.57;30.27;;;-0.50;99.90;;;;;;5070065;28;20490;-68
2022/12/10 12:13:54;;;;;;;93.20;32.35;;;-0.40;99.90;;;;;;5070223;28;20033;-68
2022/12/10 12:16:27;;;;;;;89.75;32.22;;;-0.50;99.90;;;;;;5051024;28;20083;-67
2022/12/10 12:19:01;;;;;;;104.50;34.67;;;-0.40;99.90;;;;;;5052748;28;20044;-67
2022/12/10 12:21:27;;;;;;;88.40;32.50;;;-0.40;99.90;;;;;;5071133;28;20040;-67
2022/12/10 12:24:24;;;;;;;100.45;33.97;;;-0.40;99.90;;;;;;5071415;28;20047;-67
2022/12/10 12:27:14;;;;;;;105.82;33.97;;;-0.40;99.90;;;;;;5024410;28;20048;-67
2022/12/10 12:29:59;;;;;;;91.10;32.88;;;-0.40;99.90;;;;;;5062446;28;20033;-67
2022/12/10 12:32:38;;;;;;;93.20;32.35;;;-0.30;99.90;;;;;;5069083;28;20451;-67
2022/12/10 12:35:40;;;;;;;91.97;33.13;;;-0.30;99.90;;;;;;5067124;28;20064;-67
2022/12/10 12:38:33;;;;;;;96.43;34.13;;;-0.30;99.90;;;;;;5063910;28;20036;-67
2022/12/10 12:41:10;;;;;;;86.78;30.85;;;-0.30;99.90;;;;;;5070082;28;20033;-67
2022/12/10 12:43:36;;;;;;;93.15;32.90;;;-0.30;99.90;;;;;;5069243;28;20028;-67
2022/12/10 12:46:12;;;;;;;89.28;31.75;;;-0.30;99.90;;;;;;5057096;28;20131;-67
2022/12/10 12:48:59;;;;;;;87.95;31.98;;;-0.30;99.90;;;;;;5094752;22;20044;-75
2022/12/10 12:51:33;;;;;;;96.75;34.00;;;-0.20;99.90;;;;;;5083389;28;20104;-75
2022/12/10 12:53:58;;;;;;;92.65;31.95;;;-0.20;99.90;;;;;;5089067;28;20047;-75